createdAt,value
2023-05-07T00:01:48.106Z,1.63
2023-05-07T00:04:16.233Z,1.50
2023-05-07T00:06:44.376Z,1.67
2023-05-07T00:09:12.304Z,1.47
2023-05-07T00:11:40.313Z,1.43
2023-05-07T00:14:08.294Z,1.70
2023-05-07T00:16:36.368Z,1.33
2023-05-07T00:19:05.821Z,1.67
2023-05-07T00:21:33.776Z,1.47
2023-05-07T00:24:01.700Z,1.20
2023-05-07T00:26:29.621Z,1.50
2023-05-07T00:28:57.602Z,1.40
2023-05-07T00:31:25.510Z,1.60
2023-05-07T00:33:53.444Z,1.50
2023-05-07T00:36:22.834Z,1.50
2023-05-07T00:38:50.699Z,1.30
2023-05-07T00:41:18.753Z,1.50
2023-05-07T00:43:46.953Z,1.60
2023-05-07T00:46:15.140Z,1.60
2023-05-07T00:48:43.166Z,1.30
2023-05-07T00:51:12.357Z,1.53
2023-05-07T00:53:41.833Z,1.40
2023-05-07T00:56:09.882Z,1.73
2023-05-07T00:58:37.904Z,1.83
2023-05-07T01:01:05.916Z,1.77
2023-05-07T01:03:33.864Z,1.60
2023-05-07T01:06:03.265Z,1.80
2023-05-07T01:08:32.426Z,1.90
2023-05-07T01:11:02.034Z,2.27
2023-05-07T01:13:30.042Z,1.87
2023-05-07T01:15:58.009Z,2.20
2023-05-07T01:18:26.834Z,2.10
2023-05-07T01:20:54.774Z,2.10
2023-05-07T01:23:24.774Z,2.30
2023-05-07T01:25:55.957Z,2.00
2023-05-07T01:28:24.019Z,2.17
2023-05-07T01:30:54.169Z,1.87
2023-05-07T01:33:23.665Z,1.90
2023-05-07T01:35:54.946Z,2.20
2023-05-07T01:38:24.758Z,1.90
2023-05-07T01:40:52.842Z,1.60
2023-05-07T01:43:21.402Z,2.00
2023-05-07T01:45:50.294Z,1.80
2023-05-07T01:48:18.354Z,1.57
2023-05-07T01:50:46.689Z,1.90
2023-05-07T01:53:14.640Z,2.13
2023-05-07T01:55:43.921Z,2.00
2023-05-07T01:58:11.829Z,2.07
2023-05-07T02:00:39.772Z,1.67
2023-05-07T02:03:07.896Z,1.83
2023-05-07T02:05:35.997Z,1.90
2023-05-07T02:08:03.859Z,1.70
2023-05-07T02:10:31.738Z,1.80
2023-05-07T02:13:03.130Z,2.80
2023-05-07T02:15:31.088Z,1.80
2023-05-07T02:18:02.825Z,1.90
2023-05-07T02:20:30.908Z,1.80
2023-05-07T02:22:58.871Z,2.00
2023-05-07T02:25:26.893Z,1.77
2023-05-07T02:27:54.857Z,2.53
2023-05-07T02:30:24.894Z,1.40
2023-05-07T02:32:52.898Z,1.73
2023-05-07T02:35:20.937Z,2.27
2023-05-07T02:37:48.890Z,1.73
2023-05-07T02:40:16.795Z,2.50
2023-05-07T02:42:44.750Z,2.00
2023-05-07T02:45:12.953Z,2.20
2023-05-07T02:47:42.262Z,1.97
2023-05-07T02:50:12.637Z,2.30
2023-05-07T02:52:40.817Z,2.10
2023-05-07T02:55:09.247Z,2.13
2023-05-07T02:57:37.238Z,2.00
2023-05-07T03:00:13.118Z,1.77
2023-05-07T03:02:42.719Z,1.73
2023-05-07T03:05:10.669Z,1.63
2023-05-07T03:07:38.591Z,1.93
2023-05-07T03:10:07.481Z,1.50
2023-05-07T03:12:35.787Z,1.70
2023-05-07T03:15:03.807Z,1.50
2023-05-07T03:17:31.757Z,1.40
2023-05-07T03:20:01.051Z,1.50
2023-05-07T03:22:29.021Z,1.23
2023-05-07T03:24:56.946Z,1.50
2023-05-07T03:27:24.925Z,1.50
2023-05-07T03:29:52.795Z,1.50
2023-05-07T03:32:20.711Z,1.30
2023-05-07T03:34:48.636Z,1.43
2023-05-07T03:37:18.008Z,1.30
2023-05-07T03:39:46.014Z,1.40
2023-05-07T03:42:13.946Z,1.40
2023-05-07T03:44:41.797Z,2.57
2023-05-07T03:47:11.334Z,1.57
2023-05-07T03:49:39.505Z,1.60
2023-05-07T03:52:07.576Z,1.63
2023-05-07T03:54:36.978Z,1.50
2023-05-07T03:57:05.047Z,1.60
2023-05-07T03:59:32.989Z,1.40
2023-05-07T04:02:02.891Z,1.27
2023-05-07T04:04:34.110Z,1.23
2023-05-07T04:07:02.095Z,1.10
2023-05-07T04:09:29.964Z,1.30
2023-05-07T04:11:59.313Z,1.23
2023-05-07T04:14:27.265Z,1.40
2023-05-07T04:16:55.275Z,1.40
2023-05-07T04:19:23.614Z,1.33
2023-05-07T04:21:51.543Z,1.10
2023-05-07T04:24:19.411Z,1.30
2023-05-07T04:26:47.355Z,0.97
2023-05-07T04:29:16.759Z,1.10
2023-05-07T04:31:46.239Z,1.03
2023-05-07T04:34:14.203Z,1.00
2023-05-07T04:36:42.227Z,0.97
2023-05-07T04:39:11.611Z,1.37
2023-05-07T04:41:39.528Z,1.00
2023-05-07T04:44:07.707Z,1.10
2023-05-07T04:46:37.089Z,1.10
2023-05-07T04:49:05.036Z,1.53
2023-05-07T04:51:33.958Z,0.97
2023-05-07T04:54:01.884Z,1.10
2023-05-07T04:56:30.329Z,0.97
2023-05-07T04:58:58.273Z,1.30
2023-05-07T05:01:26.383Z,1.13
2023-05-07T05:03:55.777Z,1.33
2023-05-07T05:06:23.717Z,1.10
2023-05-07T05:08:51.658Z,1.20
2023-05-07T05:11:19.571Z,1.10
2023-05-07T05:13:49.344Z,1.33
2023-05-07T05:16:17.351Z,1.33
2023-05-07T05:18:45.365Z,1.10
2023-05-07T05:21:14.717Z,1.20
2023-05-07T05:23:42.632Z,1.10
2023-05-07T05:26:10.527Z,1.20
2023-05-07T05:28:38.676Z,1.20
2023-05-07T05:31:06.948Z,1.53
2023-05-07T05:33:35.050Z,1.00
2023-05-07T05:36:03.058Z,1.33
2023-05-07T05:38:32.399Z,1.50
2023-05-07T05:41:00.379Z,1.23
2023-05-07T05:43:28.352Z,1.20
2023-05-07T05:45:57.587Z,1.03
2023-05-07T05:48:25.479Z,1.20
2023-05-07T05:50:53.722Z,1.20
2023-05-07T05:53:21.639Z,1.40
2023-05-07T05:55:51.070Z,1.23
2023-05-07T05:58:19.036Z,1.10
2023-05-07T06:00:46.981Z,1.20
2023-05-07T06:03:14.974Z,1.50
2023-05-07T06:05:42.887Z,1.50
2023-05-07T06:08:10.883Z,1.20
2023-05-07T06:10:39.026Z,1.20
2023-05-07T06:13:08.447Z,1.20
2023-05-07T06:15:36.454Z,1.30
2023-05-07T06:18:04.453Z,1.40
2023-05-07T06:20:32.446Z,1.37
2023-05-07T06:23:00.383Z,1.37
2023-05-07T06:25:28.337Z,1.67
2023-05-07T06:27:56.209Z,1.10
2023-05-07T06:30:25.690Z,1.50
2023-05-07T06:32:53.651Z,1.20
2023-05-07T06:35:21.695Z,1.20
2023-05-07T06:37:49.583Z,1.40
2023-05-07T06:40:17.906Z,1.30
2023-05-07T06:42:45.831Z,1.20
2023-05-07T06:45:14.005Z,1.10
2023-05-07T06:47:43.367Z,1.23
2023-05-07T06:50:11.953Z,1.20
2023-05-07T06:52:40.346Z,1.87
2023-05-07T06:55:09.032Z,1.47
2023-05-07T06:57:36.945Z,1.20
2023-05-07T07:00:05.462Z,1.40
2023-05-07T07:02:33.440Z,1.53
2023-05-07T07:05:02.892Z,1.60
2023-05-07T07:07:31.467Z,1.40
2023-05-07T07:09:59.435Z,1.37
2023-05-07T07:12:27.351Z,1.43
2023-05-07T07:14:55.323Z,1.50
2023-05-07T07:17:23.479Z,1.30
2023-05-07T07:19:51.380Z,1.30
2023-05-07T07:22:20.663Z,1.97
2023-05-07T07:24:48.578Z,1.80
2023-05-07T07:27:16.507Z,1.80
2023-05-07T07:29:44.424Z,2.03
2023-05-07T07:32:12.343Z,1.80
2023-05-07T07:34:40.431Z,1.63
2023-05-07T07:37:11.150Z,1.60
2023-05-07T07:39:40.495Z,1.67
2023-05-07T07:42:08.450Z,1.80
2023-05-07T07:44:36.339Z,1.73
2023-05-07T07:47:04.313Z,1.43
2023-05-07T07:49:32.256Z,1.70
2023-05-07T07:52:00.607Z,1.83
2023-05-07T07:54:28.650Z,1.90
2023-05-07T07:56:57.985Z,1.90
2023-05-07T07:59:26.258Z,1.73
2023-05-07T08:01:56.814Z,1.50
2023-05-07T08:04:24.998Z,1.70
2023-05-07T08:06:52.956Z,1.93
2023-05-07T08:09:20.818Z,2.10
2023-05-07T08:11:48.730Z,1.63
2023-05-07T08:14:18.211Z,2.00
2023-05-07T08:16:46.119Z,1.90
2023-05-07T08:19:14.046Z,1.57
2023-05-07T08:21:42.440Z,1.60
2023-05-07T08:24:10.333Z,2.00
2023-05-07T08:26:40.511Z,1.87
2023-05-07T08:29:08.467Z,2.00
2023-05-07T08:31:37.763Z,2.13
2023-05-07T08:34:07.123Z,2.20
2023-05-07T08:36:36.742Z,2.10
2023-05-07T08:39:04.990Z,2.17
2023-05-07T08:41:32.957Z,2.00
2023-05-07T08:44:01.668Z,3.77
2023-05-07T08:46:33.463Z,2.20
2023-05-07T08:49:03.034Z,2.10
2023-05-07T08:51:30.999Z,2.10
2023-05-07T08:53:58.969Z,2.20
2023-05-07T08:56:27.046Z,2.33
2023-05-07T08:58:57.721Z,2.60
2023-05-07T09:01:26.354Z,2.10
2023-05-07T09:03:55.408Z,2.40
2023-05-07T09:06:25.007Z,2.57
2023-05-07T09:08:53.380Z,2.33
2023-05-07T09:11:24.801Z,1.47
2023-05-07T09:13:55.967Z,1.30
2023-05-07T09:16:24.209Z,1.20
2023-05-07T09:18:53.840Z,1.47
2023-05-07T09:21:22.148Z,1.30
2023-05-07T09:23:52.680Z,1.30
2023-05-07T09:26:21.426Z,1.20
2023-05-07T09:28:49.344Z,1.27
2023-05-07T09:31:19.430Z,1.27
2023-05-07T09:33:48.981Z,1.37
2023-05-07T09:36:18.223Z,1.43
2023-05-07T09:38:47.468Z,1.20
2023-05-07T09:41:16.815Z,1.20
2023-05-07T09:43:44.833Z,1.17
2023-05-07T09:46:14.757Z,1.30
2023-05-07T09:48:43.255Z,1.40
2023-05-07T09:51:17.941Z,1.20
2023-05-07T09:53:48.243Z,1.30
2023-05-07T09:56:18.059Z,1.10
2023-05-07T09:58:47.349Z,1.10
2023-05-07T10:01:15.616Z,1.20
2023-05-07T10:03:44.305Z,1.10
2023-05-07T10:06:12.784Z,1.20
2023-05-07T10:08:40.748Z,0.87
2023-05-07T10:11:08.653Z,0.83
2023-05-07T10:13:39.207Z,1.13
2023-05-07T10:16:07.577Z,1.07
2023-05-07T10:18:36.103Z,1.10
2023-05-07T10:21:07.358Z,1.03
2023-05-07T10:23:35.866Z,1.03
2023-05-07T10:26:05.539Z,0.97
2023-05-07T10:28:35.448Z,0.80
2023-05-07T10:31:20.836Z,1.00
2023-05-07T10:33:49.283Z,0.83
2023-05-07T10:36:17.471Z,1.00
2023-05-07T10:38:45.393Z,1.10
2023-05-07T10:41:13.560Z,4.13
2023-05-07T10:43:45.066Z,0.97
2023-05-07T10:46:13.506Z,1.40
2023-05-07T10:49:00.297Z,1.27
2023-05-07T10:51:30.025Z,1.00
2023-05-07T10:54:12.800Z,1.10
2023-05-07T10:56:41.088Z,1.30
2023-05-07T10:59:44.677Z,1.60
2023-05-07T11:02:15.500Z,1.40
2023-05-07T11:04:43.615Z,1.30
2023-05-07T11:07:29.083Z,1.50
2023-05-07T11:10:02.446Z,1.80
2023-05-07T11:12:53.058Z,1.90
2023-05-07T11:15:35.848Z,1.67
2023-05-07T11:18:04.875Z,2.00
2023-05-07T11:21:02.782Z,1.80
2023-05-07T11:23:57.424Z,1.90
2023-05-07T11:26:27.362Z,1.90
2023-05-07T11:28:55.814Z,1.80
2023-05-07T11:31:24.800Z,1.70
2023-05-07T11:33:52.828Z,1.27
2023-05-07T11:36:21.645Z,1.70
2023-05-07T11:38:49.784Z,1.83
2023-05-07T11:41:18.663Z,1.47
2023-05-07T11:43:58.327Z,1.77
2023-05-07T11:46:26.545Z,1.60
2023-05-07T11:48:54.522Z,1.60
2023-05-07T11:51:23.045Z,1.47
2023-05-07T11:53:51.298Z,1.47
2023-05-07T11:56:19.797Z,1.60
2023-05-07T11:58:48.766Z,1.67
2023-05-07T12:01:21.300Z,1.73
2023-05-07T12:03:49.296Z,1.70
2023-05-07T12:06:18.189Z,1.67
2023-05-07T12:08:47.929Z,2.07
2023-05-07T12:11:18.560Z,2.10
2023-05-07T12:13:46.931Z,6.40
2023-05-07T12:16:14.897Z,5.03
2023-05-07T12:18:44.719Z,2.50
2023-05-07T12:21:13.173Z,2.43
2023-05-07T12:23:41.252Z,1.87
2023-05-07T12:26:09.252Z,1.60
2023-05-07T12:28:41.095Z,1.30
2023-05-07T12:31:09.669Z,1.27
2023-05-07T12:33:37.864Z,1.23
2023-05-07T12:36:08.949Z,1.03
2023-05-07T12:38:37.557Z,1.20
2023-05-07T12:41:05.530Z,1.00
2023-05-07T12:43:33.539Z,1.27
2023-05-07T12:46:02.545Z,1.10
2023-05-07T12:48:30.593Z,0.90
2023-05-07T12:50:59.064Z,1.03
2023-05-07T12:53:28.957Z,0.80
2023-05-07T12:55:58.019Z,1.10
2023-05-07T12:58:26.973Z,1.43
2023-05-07T13:00:55.092Z,1.50
2023-05-07T13:03:23.807Z,1.43
2023-05-07T13:05:51.823Z,1.10
2023-05-07T13:08:26.299Z,0.97
2023-05-07T13:10:55.704Z,0.90
2023-05-07T13:13:23.762Z,0.93
2023-05-07T13:15:51.924Z,0.90
2023-05-07T13:18:20.107Z,1.30
2023-05-07T13:20:48.090Z,0.90
2023-05-07T13:23:15.948Z,0.83
2023-05-07T13:25:43.872Z,1.17
2023-05-07T13:28:13.207Z,0.80
2023-05-07T13:30:41.845Z,0.80
2023-05-07T13:33:09.853Z,0.87
2023-05-07T13:35:38.085Z,0.87
2023-05-07T13:38:06.259Z,0.80
2023-05-07T13:40:34.301Z,0.90
2023-05-07T13:43:03.330Z,0.80
2023-05-07T13:45:32.768Z,0.70
2023-05-07T13:48:00.924Z,0.67
2023-05-07T13:50:31.095Z,0.77
2023-05-07T13:52:59.071Z,0.40
2023-05-07T13:55:27.173Z,0.63
2023-05-07T13:57:59.127Z,0.70
2023-05-07T14:00:27.455Z,0.60
2023-05-07T14:02:57.206Z,0.50
2023-05-07T14:05:25.728Z,0.53
2023-05-07T14:07:54.043Z,0.50
2023-05-07T14:10:22.015Z,0.80
2023-05-07T14:12:50.054Z,0.30
2023-05-07T14:15:18.334Z,0.40
2023-05-07T14:17:46.630Z,0.40
2023-05-07T14:20:16.063Z,0.40
2023-05-07T14:22:44.024Z,0.47
2023-05-07T14:25:12.035Z,0.53
2023-05-07T14:27:42.818Z,0.40
2023-05-07T14:30:11.249Z,0.40
2023-05-07T14:32:39.248Z,0.30
2023-05-07T14:35:09.962Z,0.40
2023-05-07T14:37:39.447Z,0.30
2023-05-07T14:40:08.776Z,0.30
2023-05-07T14:42:36.752Z,0.40
2023-05-07T14:45:04.978Z,0.47
2023-05-07T14:47:32.912Z,0.50
2023-05-07T14:50:02.269Z,0.60
2023-05-07T14:52:30.347Z,0.30
2023-05-07T14:54:59.732Z,0.37
2023-05-07T14:57:27.677Z,0.37
2023-05-07T14:59:55.628Z,0.60
2023-05-07T15:02:23.740Z,0.47
2023-05-07T15:04:51.767Z,0.40
2023-05-07T15:07:19.720Z,0.30
2023-05-07T15:09:48.335Z,0.23
2023-05-07T15:12:17.686Z,0.40
2023-05-07T15:14:45.597Z,0.50
2023-05-07T15:17:13.515Z,0.30
2023-05-07T15:19:41.530Z,0.30
2023-05-07T15:22:09.484Z,0.50
2023-05-07T15:24:37.615Z,0.40
2023-05-07T15:27:05.604Z,0.70
2023-05-07T15:29:34.986Z,0.60
2023-05-07T15:32:02.935Z,0.50
2023-05-07T15:34:32.063Z,0.47
2023-05-07T15:36:59.961Z,0.50
2023-05-07T15:39:27.876Z,0.37
2023-05-07T15:41:55.829Z,0.33
2023-05-07T15:44:23.790Z,0.40
2023-05-07T15:46:53.127Z,0.33
2023-05-07T15:49:21.024Z,0.30
2023-05-07T15:51:48.968Z,0.57
2023-05-07T15:54:18.123Z,0.60
2023-05-07T15:56:46.020Z,0.57
2023-05-07T15:59:16.046Z,0.90
2023-05-07T16:01:45.225Z,0.50
2023-05-07T16:04:14.629Z,0.60
2023-05-07T16:06:42.602Z,0.67
2023-05-07T16:09:11.138Z,1.60
2023-05-07T16:11:39.226Z,0.87
2023-05-07T16:14:07.151Z,0.50
2023-05-07T16:16:35.131Z,0.60
2023-05-07T16:19:05.987Z,0.50
2023-05-07T16:21:35.678Z,0.60
2023-05-07T16:24:03.805Z,0.60
2023-05-07T16:26:34.764Z,0.80
2023-05-07T16:29:03.026Z,0.87
2023-05-07T16:31:31.022Z,0.60
2023-05-07T16:33:59.091Z,0.70
2023-05-07T16:36:28.776Z,0.80
2023-05-07T16:38:58.189Z,0.77
2023-05-07T16:41:26.296Z,0.73
2023-05-07T16:43:54.210Z,0.57
2023-05-07T16:46:22.500Z,0.60
2023-05-07T16:48:50.465Z,0.40
2023-05-07T16:51:18.357Z,0.60
2023-05-07T16:53:46.307Z,0.70
2023-05-07T16:56:15.762Z,0.47
2023-05-07T16:58:43.697Z,0.77
2023-05-07T17:01:12.554Z,0.67
2023-05-07T17:03:40.620Z,0.53
2023-05-07T17:06:14.166Z,0.80
2023-05-07T17:08:43.130Z,0.57
2023-05-07T17:11:11.491Z,0.60
2023-05-07T17:13:41.264Z,0.40
2023-05-07T17:16:09.509Z,0.43
2023-05-07T17:18:37.547Z,0.43
2023-05-07T17:21:05.615Z,0.47
2023-05-07T17:23:33.538Z,0.60
2023-05-07T17:26:01.463Z,0.53
2023-05-07T17:28:29.397Z,0.70
2023-05-07T17:30:58.734Z,0.60
2023-05-07T17:33:27.268Z,0.60
2023-05-07T17:35:55.975Z,0.50
2023-05-07T17:38:26.688Z,0.60
2023-05-07T17:40:54.614Z,0.60
2023-05-07T17:43:23.637Z,0.90
2023-05-07T17:45:51.645Z,0.60
2023-05-07T17:48:21.195Z,0.70
2023-05-07T17:50:49.166Z,1.30
2023-05-07T17:53:17.074Z,0.60
2023-05-07T17:55:45.333Z,0.50
2023-05-07T17:58:13.567Z,0.87
2023-05-07T18:00:41.528Z,0.60
2023-05-07T18:03:09.583Z,0.80
2023-05-07T18:05:39.865Z,0.60
2023-05-07T18:08:08.085Z,0.73
2023-05-07T18:10:36.085Z,0.90
2023-05-07T18:13:04.089Z,0.73
2023-05-07T18:15:32.111Z,0.80
2023-05-07T18:18:00.066Z,1.10
2023-05-07T18:20:28.068Z,0.90
2023-05-07T18:22:57.429Z,1.00
2023-05-07T18:25:25.532Z,1.00
2023-05-07T18:27:53.499Z,1.40
2023-05-07T18:30:22.269Z,1.60
2023-05-07T18:32:50.508Z,1.30
2023-05-07T18:35:18.602Z,1.23
2023-05-07T18:37:46.553Z,1.07
2023-05-07T18:40:16.095Z,1.10
2023-05-07T18:45:25.785Z,1.27
2023-05-07T18:47:54.036Z,0.80
2023-05-07T18:50:22.048Z,1.30
2023-05-07T18:52:50.034Z,1.30
2023-05-07T18:55:20.161Z,1.20
2023-05-07T18:57:48.100Z,0.87
2023-05-07T19:00:16.838Z,1.17
2023-05-07T19:02:44.848Z,1.17
2023-05-07T19:05:13.230Z,1.27
2023-05-07T19:07:41.172Z,1.10
2023-05-07T19:10:09.695Z,1.27
2023-05-07T19:12:39.120Z,1.40
2023-05-07T19:15:07.520Z,1.30
2023-05-07T19:17:36.484Z,1.27
2023-05-07T19:22:38.539Z,1.30
2023-05-07T19:25:07.039Z,3.37
2023-05-07T19:27:34.973Z,3.10
2023-05-07T19:30:04.854Z,3.10
2023-05-07T19:32:32.795Z,2.57
2023-05-07T19:35:00.713Z,2.80
2023-05-07T19:37:28.591Z,3.73
2023-05-07T19:39:56.510Z,2.23
2023-05-07T19:42:24.418Z,1.70
2023-05-07T19:44:52.446Z,1.60
2023-05-07T19:47:21.789Z,2.20
2023-05-07T19:49:49.729Z,1.70
2023-05-07T19:52:17.679Z,1.23
2023-05-07T19:54:45.568Z,1.57
2023-05-07T19:57:13.528Z,1.60
2023-05-07T19:59:41.585Z,1.70
2023-05-07T20:02:09.532Z,1.63
2023-05-07T20:04:38.852Z,1.80
2023-05-07T20:07:07.051Z,2.00
2023-05-07T20:09:35.060Z,2.30
2023-05-07T20:12:02.958Z,1.93
2023-05-07T20:14:30.884Z,2.20
2023-05-07T20:16:58.818Z,2.23
2023-05-07T20:19:26.768Z,2.00
2023-05-07T20:21:56.965Z,1.83
2023-05-07T20:24:24.891Z,1.40
2023-05-07T20:26:52.803Z,1.80
2023-05-07T20:29:20.771Z,2.40
2023-05-07T20:31:48.717Z,1.53
2023-05-07T20:34:16.656Z,1.67
2023-05-07T20:36:45.875Z,1.70
2023-05-07T20:39:16.253Z,1.93
2023-05-07T20:41:45.138Z,1.83
2023-05-07T20:44:13.237Z,2.00
2023-05-07T20:46:41.155Z,2.00
2023-05-07T20:49:09.093Z,2.17
2023-05-07T20:51:37.083Z,1.90
2023-05-07T20:54:05.121Z,1.80
2023-05-07T20:56:34.401Z,2.13
2023-05-07T20:59:02.456Z,2.47
2023-05-07T21:01:30.727Z,2.13
2023-05-07T21:03:58.738Z,1.87
2023-05-07T21:06:26.775Z,1.80
2023-05-07T21:08:54.822Z,1.87
2023-05-07T21:11:22.720Z,2.03
2023-05-07T21:13:52.163Z,2.03
2023-05-07T21:16:21.716Z,1.80
2023-05-07T21:18:49.696Z,1.57
2023-05-07T21:21:17.610Z,1.60
2023-05-07T21:23:45.552Z,1.90
2023-05-07T21:26:18.882Z,1.70
2023-05-07T21:28:46.884Z,1.73
2023-05-07T21:31:16.287Z,1.80
2023-05-07T21:33:44.752Z,2.03
2023-05-07T21:36:12.681Z,1.97
2023-05-07T21:38:40.991Z,1.70
2023-05-07T21:41:09.083Z,2.30
2023-05-07T21:43:37.032Z,1.90
2023-05-07T21:46:07.930Z,2.03
2023-05-07T21:48:37.350Z,2.67
2023-05-07T21:51:06.476Z,2.50
2023-05-07T21:53:34.923Z,2.40
2023-05-07T21:56:03.206Z,2.40
2023-05-07T21:58:32.055Z,2.73
2023-05-07T22:01:00.000Z,2.60
2023-05-07T22:03:27.987Z,2.00
2023-05-07T22:05:57.423Z,2.17
2023-05-07T22:08:25.770Z,2.37
2023-05-07T22:10:53.657Z,1.90
2023-05-07T22:13:21.670Z,2.10
2023-05-07T22:15:57.189Z,2.30
2023-05-07T22:18:26.297Z,2.17
2023-05-07T22:20:54.203Z,2.20
2023-05-07T22:23:23.571Z,2.10
2023-05-07T22:25:51.514Z,2.40
2023-05-07T22:28:19.446Z,2.50
2023-05-07T22:30:47.411Z,2.73
2023-05-07T22:33:15.361Z,2.30
2023-05-07T22:35:43.375Z,2.50
2023-05-07T22:38:11.376Z,2.50
2023-05-07T22:40:40.693Z,2.87
2023-05-07T22:43:08.556Z,2.50
2023-05-07T22:45:36.534Z,2.40
2023-05-07T22:48:04.664Z,2.53
2023-05-07T22:50:32.605Z,2.43
2023-05-07T22:53:00.503Z,2.33
2023-05-07T22:55:28.493Z,2.97
2023-05-07T22:57:57.835Z,2.53
2023-05-07T23:00:25.962Z,2.70
2023-05-07T23:02:54.095Z,2.10
2023-05-07T23:05:22.903Z,1.90
2023-05-07T23:07:51.192Z,1.80
2023-05-07T23:10:19.179Z,1.80
2023-05-07T23:12:49.496Z,1.67
2023-05-07T23:15:19.681Z,1.50
2023-05-07T23:17:47.829Z,1.40
2023-05-07T23:20:15.831Z,1.40
2023-05-07T23:22:43.749Z,1.40
2023-05-07T23:25:12.128Z,1.83
2023-05-07T23:27:40.080Z,1.73
2023-05-07T23:30:08.939Z,1.80
2023-05-07T23:32:38.252Z,1.47
2023-05-07T23:35:06.755Z,1.90
2023-05-07T23:37:34.760Z,1.80
2023-05-07T23:40:02.691Z,1.73
2023-05-07T23:42:30.682Z,1.63
2023-05-07T23:44:58.576Z,1.53
2023-05-07T23:47:26.537Z,1.37
2023-05-07T23:49:55.916Z,1.57
2023-05-07T23:52:23.774Z,1.50
2023-05-07T23:54:51.645Z,1.50
2023-05-07T23:57:19.717Z,1.30
2023-05-07T23:59:47.586Z,1.30
